RPLC/CRK METAR and TAF weather

Enter ICAO airport designator
Station Type Date Time Source
RPLC METAR 2021/05/12 01:00 UTC NOAA

RPLC 120100Z 09002KT 9999 FEW020 BKN300 32/24 Q1011 NOSIG RMK A2985


Station Type Date Time Source
RPLC Decoded METAR 2021/05/12 01:00 UTC NOAA

Clarkfield Pampanga International Airport, Philippines (RPLC) 15-11N 120-33E
May 11, 2021 - 09:00 PM EDT / 2021.05.12 0100 UTC
Wind: from the E (090 degrees) at 2 MPH (2 KT):0
Visibility: greater than 7 mile(s):0
Sky conditions: mostly cloudy
Temperature: 89 F (32 C)
Heat index: 98.4 F (36.9 C):1
Dew Point: 75 F (24 C)
Relative Humidity: 62%
Pressure (altimeter): 29.85 in. Hg (1011 hPa)
ob: RPLC 120100Z 09002KT 9999 FEW020 BKN300 32/24 Q1011 NOSIG RMK A2985
cycle: 1

Station Type Date Time Source
RPLC TAF 2021/05/11 18:03 UTC NOAA

TAF RPLC 111700Z 1118/1224 36006KT 9999 SCT020 BKN300 TX35/1206Z TN27/1122Z
TEMPO 1118/1124 25006KT SCT020 BKN100

Example: see airport list